sensor_id;sensor_type;location;lat;lon;timestamp;temperature;humidity
77727;SHT30;68312;53.502;10.030;2023-07-28T00:02:06;15.89;96.96
77727;SHT30;68312;53.502;10.030;2023-07-28T00:04:34;15.89;96.98
77727;SHT30;68312;53.502;10.030;2023-07-28T00:06:59;15.89;96.98
77727;SHT30;68312;53.502;10.030;2023-07-28T00:09:26;15.88;97.03
77727;SHT30;68312;53.502;10.030;2023-07-28T00:11:53;15.91;97.03
77727;SHT30;68312;53.502;10.030;2023-07-28T00:14:18;15.91;97.07
77727;SHT30;68312;53.502;10.030;2023-07-28T00:16:44;15.95;97.03
77727;SHT30;68312;53.502;10.030;2023-07-28T00:19:10;15.95;97.06
77727;SHT30;68312;53.502;10.030;2023-07-28T00:21:35;15.94;97.09
77727;SHT30;68312;53.502;10.030;2023-07-28T00:24:01;15.98;97.10
77727;SHT30;68312;53.502;10.030;2023-07-28T00:26:26;15.97;97.09
77727;SHT30;68312;53.502;10.030;2023-07-28T00:28:52;15.98;97.13
77727;SHT30;68312;53.502;10.030;2023-07-28T00:31:17;15.99;97.14
77727;SHT30;68312;53.502;10.030;2023-07-28T00:33:42;15.95;97.16
77727;SHT30;68312;53.502;10.030;2023-07-28T00:36:08;15.97;97.13
77727;SHT30;68312;53.502;10.030;2023-07-28T00:38:33;15.97;97.17
77727;SHT30;68312;53.502;10.030;2023-07-28T00:40:59;15.95;97.14
77727;SHT30;68312;53.502;10.030;2023-07-28T00:43:24;15.97;97.18
77727;SHT30;68312;53.502;10.030;2023-07-28T00:45:50;15.98;97.19
77727;SHT30;68312;53.502;10.030;2023-07-28T00:48:17;15.99;97.24
77727;SHT30;68312;53.502;10.030;2023-07-28T00:50:45;15.98;97.22
77727;SHT30;68312;53.502;10.030;2023-07-28T00:53:10;15.97;97.23
77727;SHT30;68312;53.502;10.030;2023-07-28T00:55:38;15.99;97.24
77727;SHT30;68312;53.502;10.030;2023-07-28T00:58:03;16.01;97.26
77727;SHT30;68312;53.502;10.030;2023-07-28T01:00:29;16.01;97.27
77727;SHT30;68312;53.502;10.030;2023-07-28T01:02:55;15.98;97.27
77727;SHT30;68312;53.502;10.030;2023-07-28T01:05:28;15.98;97.28
77727;SHT30;68312;53.502;10.030;2023-07-28T01:10:46;15.99;97.28
77727;SHT30;68312;53.502;10.030;2023-07-28T01:13:12;15.99;97.26
77727;SHT30;68312;53.502;10.030;2023-07-28T01:15:37;15.98;97.27
77727;SHT30;68312;53.502;10.030;2023-07-28T01:18:03;16.01;97.27
77727;SHT30;68312;53.502;10.030;2023-07-28T01:20:31;15.98;97.31
77727;SHT30;68312;53.502;10.030;2023-07-28T01:25:55;15.98;97.34
77727;SHT30;68312;53.502;10.030;2023-07-28T01:28:22;15.98;97.27
77727;SHT30;68312;53.502;10.030;2023-07-28T01:30:48;15.95;97.32
77727;SHT30;68312;53.502;10.030;2023-07-28T01:33:13;15.97;97.30
77727;SHT30;68312;53.502;10.030;2023-07-28T01:35:39;15.97;97.31
77727;SHT30;68312;53.502;10.030;2023-07-28T01:38:04;15.95;97.33
77727;SHT30;68312;53.502;10.030;2023-07-28T01:40:30;15.98;97.33
77727;SHT30;68312;53.502;10.030;2023-07-28T01:42:56;15.99;97.36
77727;SHT30;68312;53.502;10.030;2023-07-28T01:45:21;15.97;97.38
77727;SHT30;68312;53.502;10.030;2023-07-28T01:47:47;15.98;97.39
77727;SHT30;68312;53.502;10.030;2023-07-28T01:50:12;15.98;97.37
77727;SHT30;68312;53.502;10.030;2023-07-28T01:52:38;16.01;97.42
77727;SHT30;68312;53.502;10.030;2023-07-28T01:55:03;15.99;97.37
77727;SHT30;68312;53.502;10.030;2023-07-28T01:57:33;16.04;97.39
77727;SHT30;68312;53.502;10.030;2023-07-28T01:59:59;16.04;97.42
77727;SHT30;68312;53.502;10.030;2023-07-28T02:02:24;16.01;97.42
77727;SHT30;68312;53.502;10.030;2023-07-28T02:04:49;16.02;97.39
77727;SHT30;68312;53.502;10.030;2023-07-28T02:07:15;15.98;97.40
77727;SHT30;68312;53.502;10.030;2023-07-28T02:09:40;15.98;97.41
77727;SHT30;68312;53.502;10.030;2023-07-28T02:12:06;16.02;97.39
77727;SHT30;68312;53.502;10.030;2023-07-28T02:14:31;16.02;97.43
77727;SHT30;68312;53.502;10.030;2023-07-28T02:16:57;16.02;97.41
77727;SHT30;68312;53.502;10.030;2023-07-28T02:19:24;16.04;97.43
77727;SHT30;68312;53.502;10.030;2023-07-28T02:21:49;16.01;97.40
77727;SHT30;68312;53.502;10.030;2023-07-28T02:24:16;16.01;97.42
77727;SHT30;68312;53.502;10.030;2023-07-28T02:26:41;15.95;97.42
77727;SHT30;68312;53.502;10.030;2023-07-28T02:29:06;15.98;97.43
77727;SHT30;68312;53.502;10.030;2023-07-28T02:31:32;15.99;97.43
77727;SHT30;68312;53.502;10.030;2023-07-28T02:33:57;15.98;97.45
77727;SHT30;68312;53.502;10.030;2023-07-28T02:36:22;15.99;97.47
77727;SHT30;68312;53.502;10.030;2023-07-28T02:38:48;16.01;97.48
77727;SHT30;68312;53.502;10.030;2023-07-28T02:41:13;16.05;97.47
77727;SHT30;68312;53.502;10.030;2023-07-28T02:43:39;16.04;97.49
77727;SHT30;68312;53.502;10.030;2023-07-28T02:46:04;16.02;97.53
77727;SHT30;68312;53.502;10.030;2023-07-28T02:48:30;16.04;97.50
77727;SHT30;68312;53.502;10.030;2023-07-28T02:50:55;16.04;97.52
77727;SHT30;68312;53.502;10.030;2023-07-28T02:53:21;16.02;97.51
77727;SHT30;68312;53.502;10.030;2023-07-28T02:55:47;16.01;97.48
77727;SHT30;68312;53.502;10.030;2023-07-28T02:58:13;15.99;97.52
77727;SHT30;68312;53.502;10.030;2023-07-28T03:00:43;16.02;97.50
77727;SHT30;68312;53.502;10.030;2023-07-28T03:03:11;15.99;97.52
77727;SHT30;68312;53.502;10.030;2023-07-28T03:05:39;16.02;97.54
77727;SHT30;68312;53.502;10.030;2023-07-28T03:08:05;15.99;97.51
77727;SHT30;68312;53.502;10.030;2023-07-28T03:10:31;15.98;97.47
77727;SHT30;68312;53.502;10.030;2023-07-28T03:12:58;15.98;97.54
77727;SHT30;68312;53.502;10.030;2023-07-28T03:15:23;15.98;97.52
77727;SHT30;68312;53.502;10.030;2023-07-28T03:17:50;15.95;97.48
77727;SHT30;68312;53.502;10.030;2023-07-28T03:20:16;15.92;97.48
77727;SHT30;68312;53.502;10.030;2023-07-28T03:22:42;15.94;97.49
77727;SHT30;68312;53.502;10.030;2023-07-28T03:25:08;15.91;97.49
77727;SHT30;68312;53.502;10.030;2023-07-28T03:27:34;15.91;97.53
77727;SHT30;68312;53.502;10.030;2023-07-28T03:30:00;15.91;97.50
77727;SHT30;68312;53.502;10.030;2023-07-28T03:32:25;15.91;97.49
77727;SHT30;68312;53.502;10.030;2023-07-28T03:34:51;15.89;97.51
77727;SHT30;68312;53.502;10.030;2023-07-28T03:37:16;15.89;97.48
77727;SHT30;68312;53.502;10.030;2023-07-28T03:39:41;15.89;97.48
77727;SHT30;68312;53.502;10.030;2023-07-28T03:42:07;15.91;97.50
77727;SHT30;68312;53.502;10.030;2023-07-28T03:44:32;15.91;97.49
77727;SHT30;68312;53.502;10.030;2023-07-28T03:46:59;15.88;97.45
77727;SHT30;68312;53.502;10.030;2023-07-28T03:49:24;15.88;97.42
77727;SHT30;68312;53.502;10.030;2023-07-28T03:51:49;15.85;97.39
77727;SHT30;68312;53.502;10.030;2023-07-28T03:54:15;15.85;97.42
77727;SHT30;68312;53.502;10.030;2023-07-28T03:56:40;15.88;97.39
77727;SHT30;68312;53.502;10.030;2023-07-28T03:59:06;15.85;97.36
77727;SHT30;68312;53.502;10.030;2023-07-28T04:01:31;15.89;97.37
77727;SHT30;68312;53.502;10.030;2023-07-28T04:03:57;15.89;97.38
77727;SHT30;68312;53.502;10.030;2023-07-28T04:06:44;15.94;97.33
77727;SHT30;68312;53.502;10.030;2023-07-28T04:09:14;15.97;97.37
77727;SHT30;68312;53.502;10.030;2023-07-28T04:11:40;15.92;97.34
77727;SHT30;68312;53.502;10.030;2023-07-28T04:14:06;15.95;97.32
77727;SHT30;68312;53.502;10.030;2023-07-28T04:16:32;15.98;97.31
77727;SHT30;68312;53.502;10.030;2023-07-28T04:18:58;15.98;97.31
77727;SHT30;68312;53.502;10.030;2023-07-28T04:21:23;16.01;97.34
77727;SHT30;68312;53.502;10.030;2023-07-28T04:23:49;16.02;97.31
77727;SHT30;68312;53.502;10.030;2023-07-28T04:26:16;16.01;97.25
77727;SHT30;68312;53.502;10.030;2023-07-28T04:28:42;15.99;97.27
77727;SHT30;68312;53.502;10.030;2023-07-28T04:31:07;15.97;97.22
77727;SHT30;68312;53.502;10.030;2023-07-28T04:33:33;15.99;97.20
77727;SHT30;68312;53.502;10.030;2023-07-28T04:36:00;15.98;97.17
77727;SHT30;68312;53.502;10.030;2023-07-28T04:38:29;16.02;97.16
77727;SHT30;68312;53.502;10.030;2023-07-28T04:40:55;15.97;97.10
77727;SHT30;68312;53.502;10.030;2023-07-28T04:43:20;15.95;97.08
77727;SHT30;68312;53.502;10.030;2023-07-28T04:45:46;15.92;97.05
77727;SHT30;68312;53.502;10.030;2023-07-28T04:48:11;15.92;96.99
77727;SHT30;68312;53.502;10.030;2023-07-28T04:50:36;15.98;97.00
77727;SHT30;68312;53.502;10.030;2023-07-28T04:53:02;16.01;96.97
77727;SHT30;68312;53.502;10.030;2023-07-28T04:55:28;15.99;97.01
77727;SHT30;68312;53.502;10.030;2023-07-28T04:57:53;16.04;96.95
77727;SHT30;68312;53.502;10.030;2023-07-28T05:00:19;16.12;96.96
77727;SHT30;68312;53.502;10.030;2023-07-28T05:02:44;16.15;96.91
77727;SHT30;68312;53.502;10.030;2023-07-28T05:05:10;16.20;96.91
77727;SHT30;68312;53.502;10.030;2023-07-28T05:07:35;16.26;96.85
77727;SHT30;68312;53.502;10.030;2023-07-28T05:10:01;16.25;96.81
77727;SHT30;68312;53.502;10.030;2023-07-28T05:12:26;16.29;96.78
77727;SHT30;68312;53.502;10.030;2023-07-28T05:14:53;16.32;96.63
77727;SHT30;68312;53.502;10.030;2023-07-28T05:17:18;16.37;96.50
77727;SHT30;68312;53.502;10.030;2023-07-28T05:19:46;16.39;96.45
77727;SHT30;68312;53.502;10.030;2023-07-28T05:22:11;16.45;96.33
77727;SHT30;68312;53.502;10.030;2023-07-28T05:24:37;16.49;96.21
77727;SHT30;68312;53.502;10.030;2023-07-28T05:27:30;16.49;96.12
77727;SHT30;68312;53.502;10.030;2023-07-28T05:29:55;16.53;96.01
77727;SHT30;68312;53.502;10.030;2023-07-28T05:32:21;16.53;95.66
77727;SHT30;68312;53.502;10.030;2023-07-28T05:34:46;16.53;95.54
77727;SHT30;68312;53.502;10.030;2023-07-28T05:37:12;16.52;95.46
77727;SHT30;68312;53.502;10.030;2023-07-28T05:39:37;16.52;95.37
77727;SHT30;68312;53.502;10.030;2023-07-28T05:42:03;16.55;95.35
77727;SHT30;68312;53.502;10.030;2023-07-28T05:44:28;16.56;95.13
77727;SHT30;68312;53.502;10.030;2023-07-28T05:46:54;16.57;94.98
77727;SHT30;68312;53.502;10.030;2023-07-28T05:49:19;16.56;94.91
77727;SHT30;68312;53.502;10.030;2023-07-28T05:51:45;16.59;94.99
77727;SHT30;68312;53.502;10.030;2023-07-28T05:54:12;16.60;94.95
77727;SHT30;68312;53.502;10.030;2023-07-28T05:56:40;16.67;94.98
77727;SHT30;68312;53.502;10.030;2023-07-28T05:59:05;16.76;95.02
77727;SHT30;68312;53.502;10.030;2023-07-28T06:01:32;16.89;94.97
77727;SHT30;68312;53.502;10.030;2023-07-28T06:04:54;17.00;94.67
77727;SHT30;68312;53.502;10.030;2023-07-28T06:07:19;17.10;94.06
77727;SHT30;68312;53.502;10.030;2023-07-28T06:09:45;17.15;93.07
77727;SHT30;68312;53.502;10.030;2023-07-28T06:12:10;17.19;92.64
77727;SHT30;68312;53.502;10.030;2023-07-28T06:14:35;17.11;91.49
77727;SHT30;68312;53.502;10.030;2023-07-28T06:17:01;17.29;91.38
77727;SHT30;68312;53.502;10.030;2023-07-28T06:19:26;17.35;90.45
77727;SHT30;68312;53.502;10.030;2023-07-28T06:21:51;17.47;90.42
77727;SHT30;68312;53.502;10.030;2023-07-28T06:24:17;17.65;90.36
77727;SHT30;68312;53.502;10.030;2023-07-28T06:26:42;17.79;90.08
77727;SHT30;68312;53.502;10.030;2023-07-28T06:29:08;17.90;89.00
77727;SHT30;68312;53.502;10.030;2023-07-28T06:32:20;18.18;88.01
77727;SHT30;68312;53.502;10.030;2023-07-28T06:34:48;18.35;87.40
77727;SHT30;68312;53.502;10.030;2023-07-28T06:37:14;18.34;86.72
77727;SHT30;68312;53.502;10.030;2023-07-28T06:39:39;18.27;87.23
77727;SHT30;68312;53.502;10.030;2023-07-28T06:42:05;18.20;87.56
77727;SHT30;68312;53.502;10.030;2023-07-28T06:44:31;18.17;87.71
77727;SHT30;68312;53.502;10.030;2023-07-28T06:46:56;18.48;88.07
77727;SHT30;68312;53.502;10.030;2023-07-28T06:49:22;18.72;86.54
77727;SHT30;68312;53.502;10.030;2023-07-28T06:51:47;18.75;86.24
77727;SHT30;68312;53.502;10.030;2023-07-28T06:54:12;18.49;84.59
77727;SHT30;68312;53.502;10.030;2023-07-28T06:56:39;18.31;86.23
77727;SHT30;68312;53.502;10.030;2023-07-28T06:59:06;18.27;87.21
77727;SHT30;68312;53.502;10.030;2023-07-28T07:01:32;18.27;87.90
77727;SHT30;68312;53.502;10.030;2023-07-28T07:03:59;18.27;87.66
77727;SHT30;68312;53.502;10.030;2023-07-28T07:06:24;18.23;86.96
77727;SHT30;68312;53.502;10.030;2023-07-28T07:08:50;18.03;86.93
77727;SHT30;68312;53.502;10.030;2023-07-28T07:11:15;17.98;87.54
77727;SHT30;68312;53.502;10.030;2023-07-28T07:13:40;17.97;88.15
77727;SHT30;68312;53.502;10.030;2023-07-28T07:16:15;17.96;88.84
77727;SHT30;68312;53.502;10.030;2023-07-28T07:18:42;17.90;88.92
77727;SHT30;68312;53.502;10.030;2023-07-28T07:21:07;17.89;89.16
77727;SHT30;68312;53.502;10.030;2023-07-28T07:23:33;17.84;89.30
77727;SHT30;68312;53.502;10.030;2023-07-28T07:25:58;17.86;88.80
77727;SHT30;68312;53.502;10.030;2023-07-28T07:28:24;17.91;89.41
77727;SHT30;68312;53.502;10.030;2023-07-28T07:30:50;17.93;89.77
77727;SHT30;68312;53.502;10.030;2023-07-28T07:33:15;17.90;89.91
77727;SHT30;68312;53.502;10.030;2023-07-28T07:35:41;17.86;90.16
77727;SHT30;68312;53.502;10.030;2023-07-28T07:38:06;17.82;90.29
77727;SHT30;68312;53.502;10.030;2023-07-28T07:40:35;17.89;90.20
77727;SHT30;68312;53.502;10.030;2023-07-28T07:43:01;17.90;89.91
77727;SHT30;68312;53.502;10.030;2023-07-28T07:45:30;17.94;89.38
77727;SHT30;68312;53.502;10.030;2023-07-28T07:47:56;17.97;88.65
77727;SHT30;68312;53.502;10.030;2023-07-28T07:50:23;18.04;88.11
77727;SHT30;68312;53.502;10.030;2023-07-28T07:52:48;18.05;87.73
77727;SHT30;68312;53.502;10.030;2023-07-28T07:55:14;18.18;88.49
77727;SHT30;68312;53.502;10.030;2023-07-28T07:57:52;18.15;88.51
77727;SHT30;68312;53.502;10.030;2023-07-28T08:00:18;18.14;88.71
77727;SHT30;68312;53.502;10.030;2023-07-28T08:02:43;18.17;88.71
77727;SHT30;68312;53.502;10.030;2023-07-28T08:05:10;18.27;89.39
77727;SHT30;68312;53.502;10.030;2023-07-28T08:07:35;18.38;89.01
77727;SHT30;68312;53.502;10.030;2023-07-28T08:10:32;18.51;88.27
77727;SHT30;68312;53.502;10.030;2023-07-28T08:16:39;18.71;86.68
77727;SHT30;68312;53.502;10.030;2023-07-28T08:19:04;18.75;85.46
77727;SHT30;68312;53.502;10.030;2023-07-28T08:21:30;18.81;85.77
77727;SHT30;68312;53.502;10.030;2023-07-28T08:24:02;18.86;87.00
77727;SHT30;68312;53.502;10.030;2023-07-28T08:26:27;18.92;86.42
77727;SHT30;68312;53.502;10.030;2023-07-28T08:28:53;19.10;85.33
77727;SHT30;68312;53.502;10.030;2023-07-28T08:31:19;19.27;82.31
77727;SHT30;68312;53.502;10.030;2023-07-28T08:33:44;19.53;81.89
77727;SHT30;68312;53.502;10.030;2023-07-28T08:36:10;19.68;81.79
77727;SHT30;68312;53.502;10.030;2023-07-28T08:38:35;19.57;80.27
77727;SHT30;68312;53.502;10.030;2023-07-28T08:41:01;19.50;81.04
77727;SHT30;68312;53.502;10.030;2023-07-28T08:44:04;19.50;82.78
77727;SHT30;68312;53.502;10.030;2023-07-28T08:46:29;19.50;83.43
77727;SHT30;68312;53.502;10.030;2023-07-28T08:48:56;19.33;82.74
77727;SHT30;68312;53.502;10.030;2023-07-28T08:51:24;19.23;83.14
77727;SHT30;68312;53.502;10.030;2023-07-28T08:53:50;19.19;84.42
77727;SHT30;68312;53.502;10.030;2023-07-28T08:56:15;19.14;83.66
77727;SHT30;68312;53.502;10.030;2023-07-28T08:58:42;19.31;84.41
77727;SHT30;68312;53.502;10.030;2023-07-28T09:01:07;19.51;85.11
77727;SHT30;68312;53.502;10.030;2023-07-28T09:03:33;19.86;82.49
77727;SHT30;68312;53.502;10.030;2023-07-28T09:06:03;20.34;78.68
77727;SHT30;68312;53.502;10.030;2023-07-28T09:08:31;20.60;76.06
77727;SHT30;68312;53.502;10.030;2023-07-28T09:11:02;20.70;75.84
77727;SHT30;68312;53.502;10.030;2023-07-28T09:13:41;20.80;76.07
77727;SHT30;68312;53.502;10.030;2023-07-28T09:16:17;20.76;75.43
77727;SHT30;68312;53.502;10.030;2023-07-28T09:18:43;21.05;74.76
77727;SHT30;68312;53.502;10.030;2023-07-28T09:21:27;21.09;76.76
77727;SHT30;68312;53.502;10.030;2023-07-28T09:23:53;20.71;74.41
77727;SHT30;68312;53.502;10.030;2023-07-28T09:26:18;20.43;75.79
77727;SHT30;68312;53.502;10.030;2023-07-28T09:28:43;20.22;78.28
77727;SHT30;68312;53.502;10.030;2023-07-28T09:31:09;20.22;80.51
77727;SHT30;68312;53.502;10.030;2023-07-28T09:33:37;20.23;79.68
77727;SHT30;68312;53.502;10.030;2023-07-28T09:36:13;20.20;78.95
77727;SHT30;68312;53.502;10.030;2023-07-28T09:38:41;20.25;79.58
77727;SHT30;68312;53.502;10.030;2023-07-28T09:41:09;20.28;78.39
77727;SHT30;68312;53.502;10.030;2023-07-28T09:43:37;20.36;79.86
77727;SHT30;68312;53.502;10.030;2023-07-28T09:46:07;20.29;80.53
77727;SHT30;68312;53.502;10.030;2023-07-28T09:48:33;20.22;80.31
77727;SHT30;68312;53.502;10.030;2023-07-28T09:51:29;20.30;78.97
77727;SHT30;68312;53.502;10.030;2023-07-28T09:54:07;20.29;78.82
77727;SHT30;68312;53.502;10.030;2023-07-28T09:56:38;20.29;79.46
77727;SHT30;68312;53.502;10.030;2023-07-28T09:59:11;20.39;78.68
77727;SHT30;68312;53.502;10.030;2023-07-28T10:01:40;20.44;77.79
77727;SHT30;68312;53.502;10.030;2023-07-28T10:04:06;20.44;78.39
77727;SHT30;68312;53.502;10.030;2023-07-28T10:06:32;20.36;78.54
77727;SHT30;68312;53.502;10.030;2023-07-28T10:09:00;20.43;79.24
77727;SHT30;68312;53.502;10.030;2023-07-28T10:11:27;20.39;79.95
77727;SHT30;68312;53.502;10.030;2023-07-28T10:13:54;20.40;80.62
77727;SHT30;68312;53.502;10.030;2023-07-28T10:16:30;20.32;78.40
77727;SHT30;68312;53.502;10.030;2023-07-28T10:18:56;20.37;79.44
77727;SHT30;68312;53.502;10.030;2023-07-28T10:21:27;20.49;79.09
77727;SHT30;68312;53.502;10.030;2023-07-28T10:23:56;20.47;78.57
77727;SHT30;68312;53.502;10.030;2023-07-28T10:26:41;20.33;78.15
77727;SHT30;68312;53.502;10.030;2023-07-28T10:29:13;20.39;78.55
77727;SHT30;68312;53.502;10.030;2023-07-28T10:31:54;20.43;77.88
77727;SHT30;68312;53.502;10.030;2023-07-28T10:34:21;20.54;77.92
77727;SHT30;68312;53.502;10.030;2023-07-28T10:36:57;20.54;77.73
77727;SHT30;68312;53.502;10.030;2023-07-28T10:39:24;20.59;78.22
77727;SHT30;68312;53.502;10.030;2023-07-28T10:42:08;20.64;77.20
77727;SHT30;68312;53.502;10.030;2023-07-28T10:44:34;20.83;76.59
77727;SHT30;68312;53.502;10.030;2023-07-28T10:47:01;21.01;75.75
77727;SHT30;68312;53.502;10.030;2023-07-28T10:49:28;21.11;74.63
77727;SHT30;68312;53.502;10.030;2023-07-28T10:51:53;21.15;75.24
77727;SHT30;68312;53.502;10.030;2023-07-28T10:54:19;21.36;74.73
77727;SHT30;68312;53.502;10.030;2023-07-28T10:56:49;21.43;75.10
77727;SHT30;68312;53.502;10.030;2023-07-28T10:59:15;21.48;73.72
77727;SHT30;68312;53.502;10.030;2023-07-28T11:01:42;21.49;75.27
77727;SHT30;68312;53.502;10.030;2023-07-28T11:04:14;21.55;75.43
77727;SHT30;68312;53.502;10.030;2023-07-28T11:06:44;21.67;72.50
77727;SHT30;68312;53.502;10.030;2023-07-28T11:09:11;21.45;72.91
77727;SHT30;68312;53.502;10.030;2023-07-28T11:11:38;21.49;74.52
77727;SHT30;68312;53.502;10.030;2023-07-28T11:14:06;21.67;74.80
77727;SHT30;68312;53.502;10.030;2023-07-28T11:16:40;21.97;71.27
77727;SHT30;68312;53.502;10.030;2023-07-28T11:19:11;22.33;72.07
77727;SHT30;68312;53.502;10.030;2023-07-28T11:21:42;22.76;70.75
77727;SHT30;68312;53.502;10.030;2023-07-28T11:24:09;23.14;67.07
77727;SHT30;68312;53.502;10.030;2023-07-28T11:26:36;23.10;65.93
77727;SHT30;68312;53.502;10.030;2023-07-28T11:29:01;23.70;66.04
77727;SHT30;68312;53.502;10.030;2023-07-28T11:31:27;24.16;65.85
77727;SHT30;68312;53.502;10.030;2023-07-28T11:33:53;24.50;63.26
77727;SHT30;68312;53.502;10.030;2023-07-28T11:36:26;24.52;63.57
77727;SHT30;68312;53.502;10.030;2023-07-28T11:38:54;24.70;63.38
77727;SHT30;68312;53.502;10.030;2023-07-28T11:41:20;25.10;61.15
77727;SHT30;68312;53.502;10.030;2023-07-28T11:43:50;24.91;61.72
77727;SHT30;68312;53.502;10.030;2023-07-28T11:46:42;24.46;61.69
77727;SHT30;68312;53.502;10.030;2023-07-28T11:49:15;24.02;63.70
77727;SHT30;68312;53.502;10.030;2023-07-28T11:51:44;23.78;65.28
77727;SHT30;68312;53.502;10.030;2023-07-28T11:54:17;23.53;66.22
77727;SHT30;68312;53.502;10.030;2023-07-28T11:56:49;23.23;65.75
77727;SHT30;68312;53.502;10.030;2023-07-28T11:59:17;23.07;66.51
77727;SHT30;68312;53.502;10.030;2023-07-28T12:02:01;23.31;66.43
77727;SHT30;68312;53.502;10.030;2023-07-28T12:04:31;24.25;67.99
77727;SHT30;68312;53.502;10.030;2023-07-28T12:07:32;25.18;65.34
77727;SHT30;68312;53.502;10.030;2023-07-28T12:10:05;25.31;60.01
77727;SHT30;68312;53.502;10.030;2023-07-28T12:13:06;24.71;61.96
77727;SHT30;68312;53.502;10.030;2023-07-28T12:15:33;24.66;64.22
77727;SHT30;68312;53.502;10.030;2023-07-28T12:18:08;24.37;64.55
77727;SHT30;68312;53.502;10.030;2023-07-28T12:20:48;24.25;66.85
77727;SHT30;68312;53.502;10.030;2023-07-28T12:23:17;24.08;66.57
77727;SHT30;68312;53.502;10.030;2023-07-28T12:25:43;23.72;65.82
77727;SHT30;68312;53.502;10.030;2023-07-28T12:28:10;23.50;66.64
77727;SHT30;68312;53.502;10.030;2023-07-28T12:30:36;23.58;67.64
77727;SHT30;68312;53.502;10.030;2023-07-28T12:33:06;23.46;68.95
77727;SHT30;68312;53.502;10.030;2023-07-28T12:35:33;23.33;67.98
77727;SHT30;68312;53.502;10.030;2023-07-28T12:38:04;23.16;69.58
77727;SHT30;68312;53.502;10.030;2023-07-28T12:40:31;22.92;68.86
77727;SHT30;68312;53.502;10.030;2023-07-28T12:42:58;22.96;69.10
77727;SHT30;68312;53.502;10.030;2023-07-28T12:45:24;23.13;67.56
77727;SHT30;68312;53.502;10.030;2023-07-28T12:47:52;23.34;68.28
77727;SHT30;68312;53.502;10.030;2023-07-28T12:50:19;23.65;66.01
77727;SHT30;68312;53.502;10.030;2023-07-28T12:52:44;23.64;65.43
77727;SHT30;68312;53.502;10.030;2023-07-28T12:55:09;23.58;66.58
77727;SHT30;68312;53.502;10.030;2023-07-28T12:57:35;23.50;65.32
77727;SHT30;68312;53.502;10.030;2023-07-28T13:00:00;23.33;67.91
77727;SHT30;68312;53.502;10.030;2023-07-28T13:02:26;23.17;65.58
77727;SHT30;68312;53.502;10.030;2023-07-28T13:04:51;22.95;67.70
77727;SHT30;68312;53.502;10.030;2023-07-28T13:07:17;22.73;69.78
77727;SHT30;68312;53.502;10.030;2023-07-28T13:09:43;22.56;69.05
77727;SHT30;68312;53.502;10.030;2023-07-28T13:12:08;22.34;70.20
77727;SHT30;68312;53.502;10.030;2023-07-28T13:14:34;22.18;71.11
77727;SHT30;68312;53.502;10.030;2023-07-28T13:17:00;22.15;71.70
77727;SHT30;68312;53.502;10.030;2023-07-28T13:19:25;22.06;73.19
77727;SHT30;68312;53.502;10.030;2023-07-28T13:21:50;21.89;72.89
77727;SHT30;68312;53.502;10.030;2023-07-28T13:24:16;21.82;74.03
77727;SHT30;68312;53.502;10.030;2023-07-28T13:26:41;21.62;75.32
77727;SHT30;68312;53.502;10.030;2023-07-28T13:29:06;21.25;77.40
77727;SHT30;68312;53.502;10.030;2023-07-28T13:31:33;21.12;78.22
77727;SHT30;68312;53.502;10.030;2023-07-28T13:33:58;21.07;80.04
77727;SHT30;68312;53.502;10.030;2023-07-28T13:36:24;21.04;80.58
77727;SHT30;68312;53.502;10.030;2023-07-28T13:38:49;21.29;80.74
77727;SHT30;68312;53.502;10.030;2023-07-28T13:41:15;21.96;80.30
77727;SHT30;68312;53.502;10.030;2023-07-28T13:43:40;23.41;73.78
77727;SHT30;68312;53.502;10.030;2023-07-28T13:46:07;24.22;71.09
77727;SHT30;68312;53.502;10.030;2023-07-28T13:48:33;24.84;68.23
77727;SHT30;68312;53.502;10.030;2023-07-28T13:50:59;25.61;66.93
77727;SHT30;68312;53.502;10.030;2023-07-28T13:53:25;26.00;63.94
77727;SHT30;68312;53.502;10.030;2023-07-28T13:55:50;25.61;64.45
77727;SHT30;68312;53.502;10.030;2023-07-28T13:58:17;24.78;64.98
77727;SHT30;68312;53.502;10.030;2023-07-28T14:00:43;24.56;65.13
77727;SHT30;68312;53.502;10.030;2023-07-28T14:03:08;24.50;63.75
77727;SHT30;68312;53.502;10.030;2023-07-28T14:05:35;24.36;64.51
77727;SHT30;68312;53.502;10.030;2023-07-28T14:08:02;24.67;66.60
77727;SHT30;68312;53.502;10.030;2023-07-28T14:10:27;24.53;65.42
77727;SHT30;68312;53.502;10.030;2023-07-28T14:12:53;24.52;65.03
77727;SHT30;68312;53.502;10.030;2023-07-28T14:15:18;24.11;68.19
77727;SHT30;68312;53.502;10.030;2023-07-28T14:17:43;23.75;67.40
77727;SHT30;68312;53.502;10.030;2023-07-28T14:20:09;23.65;68.96
77727;SHT30;68312;53.502;10.030;2023-07-28T14:22:35;23.75;68.95
77727;SHT30;68312;53.502;10.030;2023-07-28T14:25:00;23.78;68.36
77727;SHT30;68312;53.502;10.030;2023-07-28T14:27:26;23.75;67.77
77727;SHT30;68312;53.502;10.030;2023-07-28T14:29:51;23.85;68.78
77727;SHT30;68312;53.502;10.030;2023-07-28T14:32:17;24.12;69.28
77727;SHT30;68312;53.502;10.030;2023-07-28T14:34:42;24.44;67.75
77727;SHT30;68312;53.502;10.030;2023-07-28T14:37:07;24.86;64.36
77727;SHT30;68312;53.502;10.030;2023-07-28T14:39:34;25.06;62.56
77727;SHT30;68312;53.502;10.030;2023-07-28T14:41:59;25.19;62.40
77727;SHT30;68312;53.502;10.030;2023-07-28T14:44:25;25.73;60.62
77727;SHT30;68312;53.502;10.030;2023-07-28T14:46:50;25.86;61.00
77727;SHT30;68312;53.502;10.030;2023-07-28T14:49:15;26.17;60.33
77727;SHT30;68312;53.502;10.030;2023-07-28T14:51:41;25.98;59.57
77727;SHT30;68312;53.502;10.030;2023-07-28T14:54:06;25.46;60.78
77727;SHT30;68312;53.502;10.030;2023-07-28T14:56:32;24.71;62.34
77727;SHT30;68312;53.502;10.030;2023-07-28T14:59:01;24.33;64.09
77727;SHT30;68312;53.502;10.030;2023-07-28T15:01:27;24.16;64.85
77727;SHT30;68312;53.502;10.030;2023-07-28T15:03:53;23.92;65.47
77727;SHT30;68312;53.502;10.030;2023-07-28T15:06:18;23.58;65.94
77727;SHT30;68312;53.502;10.030;2023-07-28T15:08:44;23.26;67.01
77727;SHT30;68312;53.502;10.030;2023-07-28T15:11:09;23.95;65.90
77727;SHT30;68312;53.502;10.030;2023-07-28T15:13:35;24.18;64.74
77727;SHT30;68312;53.502;10.030;2023-07-28T15:16:00;24.12;63.83
77727;SHT30;68312;53.502;10.030;2023-07-28T15:18:26;24.06;63.18
77727;SHT30;68312;53.502;10.030;2023-07-28T15:20:51;24.32;62.93
77727;SHT30;68312;53.502;10.030;2023-07-28T15:23:17;24.76;62.13
77727;SHT30;68312;53.502;10.030;2023-07-28T15:25:43;24.95;61.25
77727;SHT30;68312;53.502;10.030;2023-07-28T15:28:13;24.74;62.31